Time,TemperatureF,DewpointF,PressureIn,WindDirection,WindDirectionDegrees,WindSpeedMPH,WindSpeedGustMPH,Humidity,HourlyPrecipIn,Conditions,Clouds,dailyrainin,SoftwareType,DateUTC
2013-07-01 00:06:00,72.0,71.4,29.48,West,270,1.7,-999.0,98,-99.99,,,0.00,Acu-Link.com,2013-07-01 05:06:00,
2013-07-01 00:21:00,71.4,70.8,29.48,SW,225,0.0,-999.0,98,-99.99,,,0.00,Acu-Link.com,2013-07-01 05:21:00,
2013-07-01 00:36:00,70.5,69.9,29.48,WSW,247,0.0,-999.0,98,-99.99,,,0.00,Acu-Link.com,2013-07-01 05:36:00,
2013-07-01 00:51:00,69.8,69.2,29.48,SW,225,0.0,-999.0,98,-99.99,,,0.00,Acu-Link.com,2013-07-01 05:51:00,
2013-07-01 01:06:00,68.9,68.3,29.47,WSW,247,0.0,-999.0,98,-99.99,,,0.00,Acu-Link.com,2013-07-01 06:06:00,
2013-07-01 01:22:00,68.2,67.6,29.47,WSW,247,0.0,-999.0,98,-99.99,,,0.00,Acu-Link.com,2013-07-01 06:22:00,
2013-07-01 01:37:00,67.8,67.2,29.47,West,270,0.0,-999.0,98,-99.99,,,0.00,Acu-Link.com,2013-07-01 06:37:00,
2013-07-01 01:52:00,67.1,66.5,29.46,SSW,202,0.0,-999.0,98,-99.99,,,0.00,Acu-Link.com,2013-07-01 06:52:00,
2013-07-01 02:07:00,66.7,66.1,29.47,SSW,202,0.0,-999.0,98,-99.99,,,0.00,Acu-Link.com,2013-07-01 07:07:00,
2013-07-01 02:22:00,66.6,66.0,29.47,West,270,0.0,-999.0,98,-99.99,,,0.00,Acu-Link.com,2013-07-01 07:22:00,
2013-07-01 02:37:00,66.2,65.6,29.46,ENE,67,0.0,-999.0,98,-99.99,,,0.00,Acu-Link.com,2013-07-01 07:37:00,
2013-07-01 02:52:00,66.2,65.6,29.47,West,270,0.0,-999.0,98,-99.99,,,0.00,Acu-Link.com,2013-07-01 07:52:00,
2013-07-01 03:07:00,66.2,65.6,29.47,West,270,0.0,-999.0,98,-99.99,,,0.00,Acu-Link.com,2013-07-01 08:07:00,
2013-07-01 03:22:00,66.0,65.4,29.47,West,270,0.0,-999.0,98,-99.99,,,0.00,Acu-Link.com,2013-07-01 08:22:00,
2013-07-01 03:38:00,65.7,65.1,29.47,NNE,22,0.0,-999.0,98,-99.99,,,0.00,Acu-Link.com,2013-07-01 08:38:00,
2013-07-01 03:53:00,66.0,65.4,29.47,WNW,292,0.0,-999.0,98,-99.99,,,0.00,Acu-Link.com,2013-07-01 08:53:00,
2013-07-01 04:08:00,66.2,65.6,29.47,North,0,0.0,-999.0,98,-99.99,,,0.00,Acu-Link.com,2013-07-01 09:08:00,
2013-07-01 04:23:00,66.4,65.8,29.48,East,90,0.0,-999.0,98,-99.99,,,0.00,Acu-Link.com,2013-07-01 09:23:00,
2013-07-01 04:38:00,66.4,65.8,29.48,West,270,0.0,-999.0,98,-99.99,,,0.00,Acu-Link.com,2013-07-01 09:38:00,
2013-07-01 04:53:00,66.0,65.4,29.49,SSE,157,0.0,-999.0,98,-99.99,,,0.00,Acu-Link.com,2013-07-01 09:53:00,
2013-07-01 05:09:00,65.8,65.2,29.50,West,270,0.0,-999.0,98,-99.99,,,0.00,Acu-Link.com,2013-07-01 10:09:00,
2013-07-01 05:24:00,65.8,65.2,29.51,West,270,0.0,-999.0,98,-99.99,,,0.00,Acu-Link.com,2013-07-01 10:24:00,
2013-07-01 05:39:00,65.5,64.9,29.51,WNW,292,0.0,-999.0,98,-99.99,,,0.00,Acu-Link.com,2013-07-01 10:39:00,
2013-07-01 05:54:00,65.3,64.7,29.52,SE,135,0.0,-999.0,98,-99.99,,,0.00,Acu-Link.com,2013-07-01 10:54:00,
2013-07-01 06:09:00,65.3,64.7,29.52,NW,315,0.0,-999.0,98,-99.99,,,0.00,Acu-Link.com,2013-07-01 11:09:00,
2013-07-01 06:24:00,65.3,64.7,29.52,WNW,292,0.0,-999.0,98,-99.99,,,0.00,Acu-Link.com,2013-07-01 11:24:00,
2013-07-01 06:39:00,67.3,66.7,29.52,WNW,292,0.0,-999.0,98,-99.99,,,0.00,Acu-Link.com,2013-07-01 11:39:00,
2013-07-01 06:54:00,70.5,69.9,29.52,WSW,247,0.0,-999.0,98,-99.99,,,0.00,Acu-Link.com,2013-07-01 11:54:00,
2013-07-01 07:09:00,72.1,71.5,29.53,NW,315,0.0,-999.0,98,-99.99,,,0.00,Acu-Link.com,2013-07-01 12:09:00,
2013-07-01 07:25:00,71.4,70.8,29.53,NW,315,0.0,-999.0,98,-99.99,,,0.00,Acu-Link.com,2013-07-01 12:25:00,
2013-07-01 07:40:00,74.1,73.5,29.54,NNE,22,1.7,-999.0,98,-99.99,,,0.00,Acu-Link.com,2013-07-01 12:40:00,
2013-07-01 07:55:00,77.2,76.6,29.54,North,0,0.0,-999.0,98,-99.99,,,0.00,Acu-Link.com,2013-07-01 12:55:00,
2013-07-01 08:10:00,79.5,78.9,29.55,NNW,337,2.2,-999.0,98,-99.99,,,0.00,Acu-Link.com,2013-07-01 13:10:00,
2013-07-01 08:25:00,76.1,75.5,29.55,ESE,112,2.2,-999.0,98,-99.99,,,0.00,Acu-Link.com,2013-07-01 13:25:00,
2013-07-01 08:40:00,75.7,75.1,29.55,WSW,247,2.2,-999.0,98,-99.99,,,0.00,Acu-Link.com,2013-07-01 13:40:00,
2013-07-01 08:55:00,77.0,76.4,29.56,ESE,112,1.7,-999.0,98,-99.99,,,0.00,Acu-Link.com,2013-07-01 13:55:00,
2013-07-01 09:10:00,77.0,76.4,29.56,SE,135,0.0,-999.0,98,-99.99,,,0.00,Acu-Link.com,2013-07-01 14:10:00,
2013-07-01 09:25:00,75.0,74.4,29.57,South,180,4.2,-999.0,98,-99.99,,,0.00,Acu-Link.com,2013-07-01 14:25:00,
2013-07-01 09:40:00,72.7,72.1,29.56,South,180,2.7,-999.0,98,-99.99,,,0.00,Acu-Link.com,2013-07-01 14:40:00,
2013-07-01 09:56:00,71.8,71.2,29.59,SE,135,1.1,-999.0,98,-99.99,,,0.01,Acu-Link.com,2013-07-01 14:56:00,
2013-07-01 10:11:00,71.6,71.0,29.57,SE,135,0.0,-999.0,98,-99.99,,,0.03,Acu-Link.com,2013-07-01 15:11:00,
2013-07-01 10:26:00,72.3,71.7,29.57,West,270,0.0,-999.0,98,-99.99,,,0.05,Acu-Link.com,2013-07-01 15:26:00,
2013-07-01 10:41:00,72.5,71.9,29.59,SSW,202,0.0,-999.0,98,-99.99,,,0.06,Acu-Link.com,2013-07-01 15:41:00,
2013-07-01 10:56:00,71.2,70.6,29.59,SSE,157,2.2,-999.0,98,-99.99,,,0.08,Acu-Link.com,2013-07-01 15:56:00,
2013-07-01 11:11:00,70.9,70.3,29.58,ESE,112,2.7,-999.0,98,-99.99,,,0.09,Acu-Link.com,2013-07-01 16:11:00,
2013-07-01 11:26:00,71.6,71.0,29.57,East,90,1.1,-999.0,98,-99.99,,,0.10,Acu-Link.com,2013-07-01 16:26:00,
2013-07-01 11:41:00,73.0,72.4,29.56,SE,135,3.7,-999.0,98,-99.99,,,0.10,Acu-Link.com,2013-07-01 16:41:00,
2013-07-01 11:57:00,74.7,74.1,29.55,South,180,0.0,-999.0,98,-99.99,,,0.10,Acu-Link.com,2013-07-01 16:57:00,
2013-07-01 12:27:00,77.9,77.3,29.54,ESE,112,6.8,-999.0,98,-99.99,,,0.10,Acu-Link.com,2013-07-01 17:27:00,
2013-07-01 12:42:00,79.3,78.7,29.54,SE,135,5.8,-999.0,98,-99.99,,,0.10,Acu-Link.com,2013-07-01 17:42:00,
2013-07-01 12:57:00,81.5,80.9,29.53,East,90,4.2,-999.0,98,-99.99,,,0.10,Acu-Link.com,2013-07-01 17:57:00,
2013-07-01 13:12:00,82.0,81.4,29.52,ESE,112,3.7,-999.0,98,-99.99,,,0.10,Acu-Link.com,2013-07-01 18:12:00,
2013-07-01 13:27:00,84.0,83.4,29.53,ESE,112,2.7,-999.0,98,-99.99,,,0.10,Acu-Link.com,2013-07-01 18:27:00,
2013-07-01 13:42:00,84.2,83.6,29.53,ESE,112,3.7,-999.0,98,-99.99,,,0.10,Acu-Link.com,2013-07-01 18:42:00,
2013-07-01 13:57:00,82.9,82.3,29.52,SE,135,3.2,-999.0,98,-99.99,,,0.10,Acu-Link.com,2013-07-01 18:57:00,
2013-07-01 14:12:00,83.1,82.5,29.51,SSW,202,1.7,-999.0,98,-99.99,,,0.10,Acu-Link.com,2013-07-01 19:12:00,
2013-07-01 14:28:00,82.0,81.4,29.52,SSE,157,4.7,-999.0,98,-99.99,,,0.10,Acu-Link.com,2013-07-01 19:28:00,
2013-07-01 14:43:00,82.9,82.3,29.51,East,90,2.7,-999.0,98,-99.99,,,0.10,Acu-Link.com,2013-07-01 19:43:00,
2013-07-01 14:58:00,82.9,82.3,29.51,SE,135,3.7,-999.0,98,-99.99,,,0.10,Acu-Link.com,2013-07-01 19:58:00,
2013-07-01 15:13:00,84.7,84.1,29.51,NNW,337,4.2,-999.0,98,-99.99,,,0.10,Acu-Link.com,2013-07-01 20:13:00,
2013-07-01 15:28:00,82.9,82.3,29.51,SSE,157,1.7,-999.0,98,-99.99,,,0.10,Acu-Link.com,2013-07-01 20:28:00,
2013-07-01 15:43:00,84.0,83.4,29.51,South,180,2.7,-999.0,98,-99.99,,,0.10,Acu-Link.com,2013-07-01 20:43:00,
2013-07-01 15:58:00,85.3,84.7,29.51,SE,135,4.2,-999.0,98,-99.99,,,0.10,Acu-Link.com,2013-07-01 20:58:00,
2013-07-01 16:13:00,85.3,84.7,29.50,SSE,157,4.2,-999.0,98,-99.99,,,0.10,Acu-Link.com,2013-07-01 21:13:00,
2013-07-01 16:28:00,84.6,84.0,29.50,SW,225,4.2,-999.0,98,-99.99,,,0.10,Acu-Link.com,2013-07-01 21:28:00,
2013-07-01 16:44:00,86.0,85.4,29.51,SSW,202,2.2,-999.0,98,-99.99,,,0.10,Acu-Link.com,2013-07-01 21:44:00,
2013-07-01 16:59:00,85.5,84.9,29.52,West,270,0.0,-999.0,98,-99.99,,,0.10,Acu-Link.com,2013-07-01 21:59:00,
2013-07-01 17:14:00,87.6,87.0,29.52,West,270,1.7,-999.0,98,-99.99,,,0.10,Acu-Link.com,2013-07-01 22:14:00,
2013-07-01 17:29:00,87.4,86.8,29.52,ESE,112,1.1,-999.0,98,-99.99,,,0.10,Acu-Link.com,2013-07-01 22:29:00,
2013-07-01 17:44:00,87.6,87.0,29.52,SSE,157,4.7,-999.0,98,-99.99,,,0.10,Acu-Link.com,2013-07-01 22:44:00,
2013-07-01 17:59:00,86.2,85.6,29.53,SSE,157,1.7,-999.0,98,-99.99,,,0.10,Acu-Link.com,2013-07-01 22:59:00,
2013-07-01 18:14:00,86.5,85.9,29.53,ESE,112,1.7,-999.0,98,-99.99,,,0.10,Acu-Link.com,2013-07-01 23:14:00,
2013-07-01 18:29:00,84.7,84.1,29.53,WNW,292,0.0,-999.0,98,-99.99,,,0.10,Acu-Link.com,2013-07-01 23:29:00,
2013-07-01 18:44:00,83.1,82.5,29.54,West,270,0.0,-999.0,98,-99.99,,,0.10,Acu-Link.com,2013-07-01 23:44:00,
2013-07-01 19:00:00,82.6,82.0,29.54,NW,315,0.0,-999.0,98,-99.99,,,0.10,Acu-Link.com,2013-07-02 00:00:00,
2013-07-01 19:15:00,81.9,81.3,29.55,SW,225,0.0,-999.0,98,-99.99,,,0.10,Acu-Link.com,2013-07-02 00:15:00,
2013-07-01 19:30:00,79.9,79.3,29.55,SW,225,0.0,-999.0,98,-99.99,,,0.10,Acu-Link.com,2013-07-02 00:30:00,
2013-07-01 19:45:00,78.4,77.8,29.55,ESE,112,0.0,-999.0,98,-99.99,,,0.10,Acu-Link.com,2013-07-02 00:45:00,
2013-07-01 20:00:00,76.6,76.0,29.57,SSW,202,0.0,-999.0,98,-99.99,,,0.10,Acu-Link.com,2013-07-02 01:00:00,
2013-07-01 20:15:00,76.1,75.5,29.56,West,270,0.0,-999.0,98,-99.99,,,0.10,Acu-Link.com,2013-07-02 01:15:00,
2013-07-01 20:30:00,74.8,74.2,29.57,West,270,0.0,-999.0,98,-99.99,,,0.10,Acu-Link.com,2013-07-02 01:30:00,
2013-07-01 20:45:00,73.9,73.3,29.58,SW,225,0.0,-999.0,98,-99.99,,,0.10,Acu-Link.com,2013-07-02 01:45:00,
2013-07-01 21:00:00,73.4,72.8,29.57,South,180,1.7,-999.0,98,-99.99,,,0.10,Acu-Link.com,2013-07-02 02:00:00,
2013-07-01 21:15:00,73.4,72.8,29.57,SW,225,0.0,-999.0,98,-99.99,,,0.10,Acu-Link.com,2013-07-02 02:15:00,
2013-07-01 21:31:00,73.6,73.0,29.59,SSW,202,1.7,-999.0,98,-99.99,,,0.10,Acu-Link.com,2013-07-02 02:31:00,
2013-07-01 21:46:00,74.1,73.5,29.60,SSE,157,3.7,-999.0,98,-99.99,,,0.10,Acu-Link.com,2013-07-02 02:46:00,
2013-07-01 22:01:00,73.8,73.2,29.61,ESE,112,5.3,-999.0,98,-99.99,,,0.10,Acu-Link.com,2013-07-02 03:01:00,
2013-07-01 22:16:00,72.7,72.1,29.61,SSE,157,6.8,-999.0,98,-99.99,,,0.10,Acu-Link.com,2013-07-02 03:16:00,
2013-07-01 22:31:00,71.8,71.2,29.62,ESE,112,4.2,-999.0,98,-99.99,,,0.10,Acu-Link.com,2013-07-02 03:31:00,
2013-07-01 22:46:00,71.4,70.8,29.62,SSE,157,2.7,-999.0,98,-99.99,,,0.10,Acu-Link.com,2013-07-02 03:46:00,
2013-07-01 23:01:00,71.2,70.6,29.60,NE,45,0.0,-999.0,98,-99.99,,,0.10,Acu-Link.com,2013-07-02 04:01:00,
2013-07-01 23:16:00,70.2,69.6,29.61,SSE,157,0.0,-999.0,98,-99.99,,,0.10,Acu-Link.com,2013-07-02 04:16:00,
2013-07-01 23:31:00,69.8,69.2,29.61,East,90,0.0,-999.0,98,-99.99,,,0.10,Acu-Link.com,2013-07-02 04:31:00,
2013-07-01 23:47:00,69.4,68.8,29.61,ENE,67,0.0,-999.0,98,-99.99,,,0.10,Acu-Link.com,2013-07-02 04:47:00,